Time;durP1;ratioP1;P1;durP2;ratioP2;P2;SDS_P1;SDS_P2;PMS_P1;PMS_P2;Temp;Humidity;BMP_temperature;BMP_pressure;BME280_temperature;BME280_humidity;BME280_pressure;Samples;Min_cycle;Max_cycle;Signal;HPM_P1;HPM_P2
2022/03/20 00:00:47;;;;;;;31.57;16.77;;;4.00;50.60;;;;;;5199149;28;20639;-49
2022/03/20 00:03:17;;;;;;;28.77;17.33;;;4.00;50.60;;;;;;5195285;28;20495;-48
2022/03/20 00:05:49;;;;;;;33.60;18.00;;;3.90;50.30;;;;;;5189602;28;20435;-49
2022/03/20 00:08:20;;;;;;;36.87;16.80;;;4.00;50.20;;;;;;5198446;28;20465;-56
2022/03/20 00:10:54;;;;;;;39.80;17.23;;;3.90;50.10;;;;;;5194227;28;20457;-49
2022/03/20 00:13:24;;;;;;;30.93;15.37;;;3.90;49.60;;;;;;5199515;28;20519;-48
2022/03/20 00:15:57;;;;;;;26.87;15.33;;;3.90;49.50;;;;;;5199891;28;20430;-49
2022/03/20 00:18:28;;;;;;;28.63;15.93;;;3.90;49.10;;;;;;5199031;28;20317;-50
2022/03/20 00:21:00;;;;;;;25.60;14.97;;;3.90;48.70;;;;;;5194191;28;20545;-51
2022/03/20 00:23:32;;;;;;;29.17;14.87;;;4.00;48.50;;;;;;5194363;28;20191;-49
2022/03/20 00:26:03;;;;;;;29.97;16.20;;;3.80;47.80;;;;;;5174157;28;20434;-51
2022/03/20 00:28:33;;;;;;;28.60;16.73;;;4.00;47.70;;;;;;5193913;28;20434;-51
2022/03/20 00:31:04;;;;;;;29.23;17.57;;;4.00;47.50;;;;;;5192374;28;20292;-50
2022/03/20 00:33:34;;;;;;;34.60;15.23;;;4.00;47.40;;;;;;5185828;28;20214;-48
2022/03/20 00:36:06;;;;;;;29.57;16.67;;;4.00;47.40;;;;;;5195294;28;20176;-48
2022/03/20 00:38:36;;;;;;;35.17;15.13;;;4.00;47.50;;;;;;5186250;28;20168;-51
2022/03/20 00:41:07;;;;;;;33.20;16.00;;;3.90;47.30;;;;;;5186424;28;20465;-50
2022/03/20 00:43:38;;;;;;;32.33;16.90;;;4.00;47.20;;;;;;5201428;28;20267;-50
2022/03/20 00:46:09;;;;;;;27.53;14.80;;;4.00;47.20;;;;;;5193728;28;20266;-50
2022/03/20 00:48:39;;;;;;;29.13;15.73;;;3.90;47.20;;;;;;5198342;28;20942;-51
2022/03/20 00:51:13;;;;;;;29.47;15.00;;;3.90;47.40;;;;;;5197359;28;20298;-49
2022/03/20 00:53:44;;;;;;;27.63;15.70;;;3.80;47.30;;;;;;5182710;28;20658;-50
2022/03/20 00:56:15;;;;;;;23.47;14.17;;;3.90;47.40;;;;;;5191314;28;20450;-50
2022/03/20 00:58:46;;;;;;;27.10;15.27;;;3.80;47.60;;;;;;5198646;28;20175;-48
2022/03/20 01:01:16;;;;;;;34.20;15.53;;;3.70;47.70;;;;;;5198878;28;20196;-50
2022/03/20 01:03:47;;;;;;;32.50;15.97;;;3.70;47.90;;;;;;5198106;28;20427;-50
2022/03/20 01:06:18;;;;;;;40.10;18.33;;;3.60;48.00;;;;;;5200909;28;20191;-50
2022/03/20 01:08:49;;;;;;;31.53;16.27;;;3.60;48.00;;;;;;5198964;28;20605;-50
2022/03/20 01:11:20;;;;;;;27.13;15.73;;;3.70;48.00;;;;;;5195414;28;20208;-49
2022/03/20 01:13:50;;;;;;;32.83;16.20;;;3.60;48.10;;;;;;5196080;28;20469;-50
2022/03/20 01:16:21;;;;;;;34.33;16.80;;;3.70;48.60;;;;;;5200015;28;20206;-50
2022/03/20 01:18:52;;;;;;;30.30;15.70;;;3.60;48.20;;;;;;5192234;28;20192;-51
2022/03/20 01:21:23;;;;;;;32.87;17.43;;;3.60;48.20;;;;;;5201579;28;20516;-51
2022/03/20 01:23:54;;;;;;;28.70;15.77;;;3.50;48.10;;;;;;5194394;28;20191;-50
2022/03/20 01:26:24;;;;;;;25.93;15.37;;;3.50;48.70;;;;;;5198298;28;20622;-49
2022/03/20 01:28:55;;;;;;;23.23;14.97;;;3.50;48.40;;;;;;5185961;28;20262;-50
2022/03/20 01:31:28;;;;;;;29.60;16.17;;;3.40;48.30;;;;;;5199506;28;20594;-50
2022/03/20 01:33:59;;;;;;;31.27;15.53;;;3.40;48.40;;;;;;5201679;28;20614;-49
2022/03/20 01:36:29;;;;;;;25.10;14.73;;;3.40;48.30;;;;;;5198655;28;20441;-51
2022/03/20 01:39:00;;;;;;;28.20;15.63;;;3.50;48.20;;;;;;5195950;28;20184;-49
2022/03/20 01:41:30;;;;;;;23.77;14.40;;;3.40;48.30;;;;;;5191700;28;20213;-49
2022/03/20 01:44:02;;;;;;;32.53;16.17;;;3.40;48.20;;;;;;5199533;28;20548;-50
2022/03/20 01:46:33;;;;;;;34.50;15.97;;;3.40;48.20;;;;;;5193827;28;20179;-49
2022/03/20 01:49:04;;;;;;;27.80;15.73;;;3.30;48.30;;;;;;5189829;28;20776;-50
2022/03/20 01:54:25;;;;;;;32.30;17.33;;;3.20;48.70;;;;;;5194763;28;20533;-50
2022/03/20 01:56:55;;;;;;;37.80;17.00;;;3.20;48.90;;;;;;5194466;28;20958;-51
2022/03/20 01:59:26;;;;;;;29.90;16.27;;;3.20;49.10;;;;;;5192427;28;20180;-48
2022/03/20 02:01:56;;;;;;;28.93;14.80;;;3.20;49.10;;;;;;5189759;28;20541;-49
2022/03/20 02:04:27;;;;;;;27.30;15.60;;;3.10;49.10;;;;;;5199848;28;20604;-51
2022/03/20 02:06:59;;;;;;;25.83;14.63;;;3.10;49.10;;;;;;5199833;28;20204;-49
2022/03/20 02:09:31;;;;;;;28.93;14.77;;;3.10;49.30;;;;;;5206618;28;20257;-50
2022/03/20 02:12:02;;;;;;;31.83;16.10;;;3.10;49.00;;;;;;5202572;28;20461;-50
2022/03/20 02:14:33;;;;;;;26.07;15.10;;;3.10;48.60;;;;;;5198029;28;20461;-51
2022/03/20 02:17:04;;;;;;;33.33;17.70;;;3.10;48.60;;;;;;5204486;28;20513;-51
2022/03/20 02:19:35;;;;;;;40.33;16.00;;;3.10;48.90;;;;;;5200125;28;20846;-49
2022/03/20 02:22:06;;;;;;;30.93;15.37;;;3.00;49.00;;;;;;5201840;28;20461;-49
2022/03/20 02:24:44;;;;;;;34.13;15.33;;;3.00;49.80;;;;;;5198062;28;20668;-49
2022/03/20 02:27:19;;;;;;;28.47;15.17;;;2.90;49.20;;;;;;5196597;28;20183;-50
2022/03/20 02:29:57;;;;;;;27.93;16.27;;;2.90;49.20;;;;;;5201130;28;20496;-52
2022/03/20 02:32:30;;;;;;;33.30;16.13;;;2.90;49.20;;;;;;5198410;28;20454;-50
2022/03/20 02:35:03;;;;;;;48.77;17.40;;;2.90;49.10;;;;;;5201689;28;20991;-49
2022/03/20 02:37:34;;;;;;;26.00;15.30;;;2.90;48.90;;;;;;5199752;28;21025;-50
2022/03/20 02:40:05;;;;;;;27.13;15.57;;;2.90;48.30;;;;;;5199963;28;20529;-50
2022/03/20 02:42:37;;;;;;;23.60;14.00;;;2.90;48.60;;;;;;5195621;28;20211;-51
2022/03/20 02:45:13;;;;;;;32.07;16.57;;;3.00;48.70;;;;;;5199611;28;20445;-50
2022/03/20 02:47:45;;;;;;;22.47;13.27;;;2.90;48.70;;;;;;5196659;28;20449;-49
2022/03/20 02:50:19;;;;;;;33.90;15.47;;;2.90;48.90;;;;;;5201656;28;20446;-50
2022/03/20 02:52:52;;;;;;;28.13;14.07;;;2.80;48.80;;;;;;5206009;28;20778;-50
2022/03/20 02:55:31;;;;;;;29.27;15.47;;;2.80;49.10;;;;;;5195583;28;20557;-50
2022/03/20 02:58:10;;;;;;;32.87;16.20;;;2.70;49.20;;;;;;5196532;28;20443;-49
2022/03/20 03:00:41;;;;;;;37.10;16.60;;;2.80;49.30;;;;;;5188971;28;20858;-49
2022/03/20 03:03:12;;;;;;;28.63;15.73;;;2.80;49.40;;;;;;5200233;28;20431;-49
2022/03/20 03:05:45;;;;;;;35.67;15.63;;;2.80;49.20;;;;;;5191456;28;20964;-51
2022/03/20 03:11:04;;;;;;;31.47;16.93;;;2.70;49.40;;;;;;5203410;28;20495;-51
2022/03/20 03:13:37;;;;;;;32.23;15.13;;;2.60;49.50;;;;;;5199092;28;20458;-51
2022/03/20 03:16:13;;;;;;;30.73;16.10;;;2.60;49.40;;;;;;5193612;28;20184;-49
2022/03/20 03:18:47;;;;;;;33.20;17.47;;;2.60;49.20;;;;;;5197175;28;20461;-50
2022/03/20 03:21:18;;;;;;;33.20;15.20;;;2.70;49.40;;;;;;5199445;28;20481;-49
2022/03/20 03:23:48;;;;;;;32.60;16.50;;;2.60;49.50;;;;;;5198354;28;20798;-48
2022/03/20 03:26:19;;;;;;;24.50;15.13;;;2.60;49.50;;;;;;5200067;28;20216;-50
2022/03/20 03:28:49;;;;;;;30.47;15.83;;;2.60;49.50;;;;;;5200692;28;20612;-51
2022/03/20 03:31:20;;;;;;;23.17;14.57;;;2.60;49.20;;;;;;5181121;28;20214;-48
2022/03/20 03:36:41;;;;;;;31.13;17.00;;;2.60;49.20;;;;;;5198163;28;20735;-50
2022/03/20 03:39:12;;;;;;;28.40;16.23;;;2.60;49.40;;;;;;5198063;28;20430;-49
2022/03/20 03:41:43;;;;;;;31.70;16.20;;;2.50;49.50;;;;;;5199595;28;20480;-49
2022/03/20 03:44:13;;;;;;;33.73;16.37;;;2.50;49.50;;;;;;5194260;28;20198;-50
2022/03/20 03:46:44;;;;;;;28.57;14.70;;;2.50;49.50;;;;;;5198485;28;20194;-49
2022/03/20 03:49:14;;;;;;;29.63;16.07;;;2.50;49.50;;;;;;5197657;28;20187;-50
2022/03/20 03:51:45;;;;;;;40.37;17.17;;;2.50;49.80;;;;;;5193086;28;20226;-49
2022/03/20 03:54:15;;;;;;;26.33;15.37;;;2.50;50.00;;;;;;5202081;28;20217;-48
2022/03/20 03:56:46;;;;;;;26.93;15.70;;;2.40;50.20;;;;;;5202639;28;20191;-49
2022/03/20 03:59:17;;;;;;;36.70;16.13;;;2.40;50.20;;;;;;5190375;28;20202;-50
2022/03/20 04:01:49;;;;;;;27.23;15.40;;;2.40;50.10;;;;;;5195055;27;20283;-50
2022/03/20 04:04:19;;;;;;;37.20;16.23;;;2.40;50.30;;;;;;5202463;27;20989;-50
2022/03/20 04:06:49;;;;;;;31.70;16.57;;;2.30;50.30;;;;;;5198963;28;20721;-50
2022/03/20 04:09:21;;;;;;;31.20;15.20;;;2.30;50.40;;;;;;5188375;28;20195;-48
2022/03/20 04:11:52;;;;;;;29.60;17.30;;;2.30;50.70;;;;;;5196121;28;20257;-49
2022/03/20 04:14:22;;;;;;;29.87;15.73;;;2.30;50.90;;;;;;5198294;28;20539;-49
2022/03/20 04:16:54;;;;;;;32.47;16.73;;;2.20;51.00;;;;;;5198502;28;20195;-51
2022/03/20 04:19:25;;;;;;;30.40;15.43;;;2.20;51.10;;;;;;5194109;28;20180;-50
2022/03/20 04:21:55;;;;;;;33.80;15.50;;;2.20;51.30;;;;;;5195885;28;20481;-49
2022/03/20 04:24:26;;;;;;;29.00;15.60;;;2.10;51.30;;;;;;5195101;28;20438;-49
2022/03/20 04:26:58;;;;;;;35.60;16.97;;;2.10;51.50;;;;;;5188798;28;20188;-50
2022/03/20 04:29:29;;;;;;;32.90;17.00;;;2.10;51.90;;;;;;5193593;28;20632;-49
2022/03/20 04:32:00;;;;;;;31.63;15.53;;;2.00;52.00;;;;;;5191546;28;20466;-51
2022/03/20 04:34:30;;;;;;;27.50;16.43;;;2.00;52.40;;;;;;5196371;28;20212;-49
2022/03/20 04:37:04;;;;;;;30.60;15.20;;;1.90;52.50;;;;;;5191725;28;20180;-51
2022/03/20 04:39:35;;;;;;;34.27;16.13;;;1.90;52.70;;;;;;5187947;28;20173;-51
2022/03/20 04:42:09;;;;;;;28.07;16.87;;;1.90;53.00;;;;;;5199106;28;20456;-49
2022/03/20 04:44:40;;;;;;;31.77;17.40;;;1.80;53.20;;;;;;5195919;28;20436;-50
2022/03/20 04:58:30;;;;;;;39.13;15.80;;;1.70;54.30;;;;;;5189969;28;20442;-51
2022/03/20 05:01:01;;;;;;;31.33;16.33;;;1.70;54.50;;;;;;5202314;28;20470;-50
2022/03/20 05:03:32;;;;;;;40.00;18.07;;;1.60;54.40;;;;;;5195486;28;20439;-50
2022/03/20 05:06:05;;;;;;;28.63;15.07;;;1.60;54.60;;;;;;5190863;28;20448;-50
2022/03/20 05:08:36;;;;;;;33.23;16.73;;;1.60;54.70;;;;;;5197189;28;20435;-52
2022/03/20 05:13:55;;;;;;;32.83;17.43;;;1.60;54.60;;;;;;5193059;28;20519;-49
2022/03/20 05:16:26;;;;;;;32.03;16.93;;;1.60;54.60;;;;;;5190478;28;20772;-49
2022/03/20 05:18:56;;;;;;;35.30;17.37;;;1.60;55.00;;;;;;5196101;28;20188;-51
2022/03/20 05:21:27;;;;;;;32.20;17.37;;;1.60;55.00;;;;;;5199504;28;20228;-49
2022/03/20 05:23:57;;;;;;;26.93;15.57;;;1.60;55.00;;;;;;5197559;28;20191;-49
2022/03/20 05:26:28;;;;;;;29.40;17.00;;;1.60;55.30;;;;;;5188372;28;20180;-49
2022/03/20 05:28:58;;;;;;;34.07;17.83;;;1.60;55.90;;;;;;5196896;28;20633;-50
2022/03/20 05:31:30;;;;;;;29.47;16.50;;;1.60;55.50;;;;;;5189947;28;20298;-49
2022/03/20 05:34:00;;;;;;;25.57;15.60;;;1.50;55.50;;;;;;5193852;28;20749;-49
2022/03/20 05:36:31;;;;;;;42.13;16.97;;;1.50;55.70;;;;;;5193434;28;20492;-50
2022/03/20 05:39:02;;;;;;;35.83;16.70;;;1.60;55.30;;;;;;5194108;28;20221;-50
2022/03/20 05:41:48;;;;;;;41.73;16.77;;;1.60;55.10;;;;;;5199913;28;20231;-50
2022/03/20 05:44:21;;;;;;;33.67;16.07;;;1.60;54.90;;;;;;5191194;28;20517;-51
2022/03/20 05:46:54;;;;;;;37.53;17.60;;;1.70;55.10;;;;;;5199810;28;20771;-50
2022/03/20 05:49:25;;;;;;;36.47;16.70;;;1.90;54.40;;;;;;5197874;28;20452;-49
2022/03/20 05:51:55;;;;;;;41.27;17.57;;;2.10;53.90;;;;;;5201761;28;20458;-50
2022/03/20 05:54:26;;;;;;;34.90;17.03;;;2.40;52.80;;;;;;5194096;28;20232;-49
2022/03/20 05:59:45;;;;;;;26.57;15.60;;;2.80;51.00;;;;;;5203621;28;20252;-49
2022/03/20 06:02:17;;;;;;;32.53;16.00;;;3.20;50.00;;;;;;5187088;28;20462;-50
2022/03/20 06:04:47;;;;;;;32.33;17.47;;;3.20;49.20;;;;;;5192442;28;20182;-50
2022/03/20 06:07:18;;;;;;;31.53;16.30;;;3.00;49.20;;;;;;5203351;28;20444;-50
2022/03/20 06:09:48;;;;;;;32.13;16.70;;;2.80;49.70;;;;;;5202512;28;20197;-49
2022/03/20 06:12:19;;;;;;;29.87;17.07;;;2.90;50.00;;;;;;5195991;28;20199;-49
2022/03/20 06:14:49;;;;;;;31.73;16.00;;;3.40;49.30;;;;;;5196441;28;20214;-50
2022/03/20 06:17:20;;;;;;;34.90;15.97;;;4.30;47.70;;;;;;5202116;28;20172;-50
2022/03/20 06:19:52;;;;;;;39.87;17.13;;;5.50;45.20;;;;;;5203947;28;20241;-49
2022/03/20 06:22:23;;;;;;;31.77;16.60;;;6.50;42.50;;;;;;5189936;22;21013;-46
2022/03/20 06:24:54;;;;;;;30.27;17.23;;;7.20;40.40;;;;;;5182340;28;20449;-46
2022/03/20 06:27:24;;;;;;;29.23;16.00;;;7.80;39.30;;;;;;5182782;28;20439;-49
2022/03/20 06:29:55;;;;;;;32.93;18.20;;;8.10;38.00;;;;;;5180773;28;20181;-47
2022/03/20 06:32:27;;;;;;;24.60;14.50;;;8.30;37.20;;;;;;5181761;28;20204;-47
2022/03/20 06:34:57;;;;;;;33.90;17.30;;;8.20;36.80;;;;;;5170465;28;20678;-45
2022/03/20 06:37:28;;;;;;;33.40;17.10;;;8.10;36.90;;;;;;5181988;28;20432;-46
2022/03/20 06:39:58;;;;;;;32.53;16.20;;;8.00;37.10;;;;;;5179336;28;20241;-46
2022/03/20 06:42:30;;;;;;;33.07;18.20;;;8.20;37.50;;;;;;5177803;28;20241;-45
2022/03/20 06:45:08;;;;;;;32.93;17.17;;;8.10;36.70;;;;;;5172010;28;20176;-44
2022/03/20 06:47:41;;;;;;;30.43;16.90;;;8.40;36.20;;;;;;5180434;28;20625;-45
2022/03/20 06:50:13;;;;;;;31.10;16.20;;;8.70;36.40;;;;;;5178208;28;20566;-45
2022/03/20 06:52:44;;;;;;;30.43;16.90;;;9.20;34.80;;;;;;5181229;28;20818;-46
2022/03/20 06:55:18;;;;;;;41.53;16.53;;;9.20;34.10;;;;;;5175993;28;20467;-46
2022/03/20 06:57:49;;;;;;;32.07;16.87;;;8.90;34.40;;;;;;5178063;28;20180;-45
2022/03/20 07:00:19;;;;;;;30.50;16.47;;;9.10;34.10;;;;;;5173826;28;20435;-45
2022/03/20 07:02:50;;;;;;;31.60;16.60;;;8.60;34.00;;;;;;5171543;28;20228;-45
2022/03/20 07:05:21;;;;;;;36.77;17.27;;;8.80;34.20;;;;;;5177649;28;20193;-44
2022/03/20 07:07:52;;;;;;;34.03;18.57;;;8.90;33.60;;;;;;5175672;28;20221;-45
2022/03/20 07:10:25;;;;;;;37.23;16.17;;;8.60;33.70;;;;;;5183281;28;20188;-46
2022/03/20 07:13:48;;;;;;;31.57;16.10;;;8.20;34.20;;;;;;5181033;28;20800;-45
2022/03/20 07:15:49;;;;;;;38.37;17.27;;;8.10;34.90;;;;;;5177581;28;20482;-44
2022/03/20 07:18:20;;;;;;;32.37;16.67;;;8.40;34.30;;;;;;5176874;28;20447;-49
2022/03/20 07:20:51;;;;;;;30.77;17.53;;;8.60;34.10;;;;;;5173062;28;20444;-46
2022/03/20 07:23:22;;;;;;;38.90;18.23;;;8.70;33.80;;;;;;5187206;28;20217;-44
2022/03/20 07:31:31;;;;;;;36.63;17.13;;;9.30;32.80;;;;;;5177459;28;21222;-45
2022/03/20 07:34:02;;;;;;;28.40;16.97;;;9.60;32.30;;;;;;5177073;28;20571;-47
2022/03/20 07:36:33;;;;;;;33.23;16.97;;;9.70;32.00;;;;;;5178806;28;20400;-46
2022/03/20 07:39:04;;;;;;;33.37;17.70;;;10.00;30.80;;;;;;5177664;28;20177;-49
2022/03/20 07:41:35;;;;;;;29.47;16.70;;;10.50;30.20;;;;;;5171584;28;21700;-46
2022/03/20 07:44:05;;;;;;;31.03;17.43;;;10.10;30.50;;;;;;5179381;28;20532;-46
2022/03/20 07:46:36;;;;;;;34.83;17.40;;;9.90;31.00;;;;;;5179000;28;20216;-46
2022/03/20 07:49:08;;;;;;;36.60;17.67;;;10.00;30.30;;;;;;5172975;28;20645;-46
2022/03/20 07:51:38;;;;;;;27.47;16.93;;;9.90;31.00;;;;;;5172044;28;20213;-46
2022/03/20 07:54:09;;;;;;;33.70;16.07;;;9.80;31.40;;;;;;5173728;28;20834;-45
2022/03/20 07:56:39;;;;;;;36.07;16.93;;;9.80;30.90;;;;;;5166374;28;20189;-44
2022/03/20 07:59:11;;;;;;;32.97;16.63;;;9.80;31.30;;;;;;5181107;28;20226;-45
2022/03/20 08:01:42;;;;;;;28.47;16.10;;;9.60;31.10;;;;;;5180350;28;20227;-45
2022/03/20 08:04:13;;;;;;;34.60;17.73;;;9.80;31.40;;;;;;5176313;28;20538;-47
2022/03/20 08:06:43;;;;;;;42.33;16.33;;;9.40;31.30;;;;;;5176606;28;20178;-47
2022/03/20 08:09:14;;;;;;;34.40;17.47;;;8.40;32.00;;;;;;5174526;28;20185;-45
2022/03/20 08:11:44;;;;;;;28.80;16.33;;;8.00;33.80;;;;;;5182001;28;20279;-46
2022/03/20 08:14:15;;;;;;;35.03;17.60;;;7.50;34.50;;;;;;5177171;28;20214;-46
2022/03/20 08:16:47;;;;;;;36.33;18.40;;;7.10;35.40;;;;;;5180712;28;20190;-46
2022/03/20 08:19:19;;;;;;;32.73;16.60;;;6.80;35.80;;;;;;5177378;28;20181;-46
2022/03/20 08:21:49;;;;;;;31.67;16.47;;;6.60;36.40;;;;;;5171927;28;20472;-46
2022/03/20 08:24:20;;;;;;;30.70;17.27;;;6.40;36.40;;;;;;5178766;28;20544;-46
2022/03/20 08:26:51;;;;;;;25.73;16.23;;;6.20;36.60;;;;;;5185522;28;20602;-46
2022/03/20 08:29:21;;;;;;;39.80;17.03;;;6.10;36.90;;;;;;5181784;28;20192;-45
2022/03/20 08:31:54;;;;;;;30.03;17.40;;;6.10;37.10;;;;;;5179262;28;20213;-46
2022/03/20 08:34:24;;;;;;;29.63;16.17;;;6.00;37.00;;;;;;5176730;28;20272;-46
2022/03/20 08:36:55;;;;;;;33.97;16.43;;;6.10;37.10;;;;;;5176806;28;20541;-48
2022/03/20 08:39:26;;;;;;;30.73;16.20;;;6.30;37.00;;;;;;5179737;28;20209;-46
2022/03/20 08:41:57;;;;;;;30.87;16.00;;;6.30;37.00;;;;;;5177104;28;20543;-45
2022/03/20 08:44:28;;;;;;;27.27;16.10;;;6.30;37.20;;;;;;5187397;28;20190;-47
2022/03/20 08:46:58;;;;;;;28.00;15.67;;;6.40;36.80;;;;;;5174557;28;20661;-48
2022/03/20 08:49:30;;;;;;;38.73;18.00;;;6.30;36.70;;;;;;5176270;28;20823;-47
2022/03/20 08:52:01;;;;;;;34.90;15.90;;;6.30;37.00;;;;;;5184956;28;20466;-46
2022/03/20 08:54:31;;;;;;;36.80;16.67;;;6.30;36.90;;;;;;5177053;28;20308;-45
2022/03/20 08:57:05;;;;;;;27.50;15.50;;;6.40;36.90;;;;;;5182325;28;20205;-44
2022/03/20 08:59:36;;;;;;;28.10;14.63;;;6.40;36.80;;;;;;5181470;28;20202;-46
2022/03/20 09:02:07;;;;;;;33.13;16.47;;;6.40;36.80;;;;;;5176073;28;20514;-46
2022/03/20 09:04:38;;;;;;;38.50;15.83;;;6.40;37.10;;;;;;5176256;28;20449;-47
2022/03/20 09:07:08;;;;;;;39.33;17.90;;;6.50;36.90;;;;;;5175257;28;20195;-47
2022/03/20 09:09:39;;;;;;;32.83;16.80;;;6.40;36.50;;;;;;5179576;28;20179;-45
2022/03/20 09:12:11;;;;;;;29.87;15.77;;;6.60;36.90;;;;;;5177028;28;20213;-46
2022/03/20 09:14:42;;;;;;;32.50;17.13;;;6.70;36.80;;;;;;5176560;28;20210;-45
2022/03/20 09:20:02;;;;;;;31.17;16.13;;;7.00;36.10;;;;;;5174340;28;20242;-49
2022/03/20 09:22:34;;;;;;;34.10;17.10;;;7.10;35.80;;;;;;5145851;28;22103;-50
2022/03/20 09:25:05;;;;;;;30.10;15.90;;;7.20;35.50;;;;;;5165241;28;20513;-45
2022/03/20 09:27:36;;;;;;;46.63;16.40;;;7.30;35.10;;;;;;5176708;28;20448;-45
2022/03/20 09:30:07;;;;;;;32.80;16.67;;;7.40;34.60;;;;;;5173271;28;20434;-46
2022/03/20 09:32:38;;;;;;;30.73;17.53;;;7.50;34.70;;;;;;5170269;28;20212;-45
2022/03/20 09:35:09;;;;;;;28.80;17.87;;;7.60;34.60;;;;;;5178529;28;20558;-45
2022/03/20 09:37:40;;;;;;;35.97;16.30;;;7.80;34.40;;;;;;5172834;28;20249;-46
2022/03/20 09:40:12;;;;;;;28.53;16.53;;;7.90;34.00;;;;;;5169480;28;20303;-45
2022/03/20 09:42:42;;;;;;;31.07;15.40;;;8.00;34.00;;;;;;5174748;28;20534;-47
2022/03/20 09:45:17;;;;;;;30.47;16.47;;;8.20;35.10;;;;;;5174466;28;20443;-47
2022/03/20 09:47:48;;;;;;;25.80;15.33;;;8.40;35.80;;;;;;5171119;28;20195;-46
2022/03/20 09:50:19;;;;;;;27.37;16.03;;;8.50;33.30;;;;;;5175306;28;20935;-46
2022/03/20 09:52:50;;;;;;;31.73;16.07;;;8.50;33.20;;;;;;5175922;28;20460;-47
2022/03/20 09:55:20;;;;;;;27.77;15.60;;;8.60;33.10;;;;;;5170169;28;20200;-46
2022/03/20 09:57:58;;;;;;;36.50;15.57;;;8.60;32.60;;;;;;5175550;28;20293;-46
2022/03/20 10:00:30;;;;;;;29.60;17.07;;;8.40;32.60;;;;;;5175380;28;20656;-48
2022/03/20 10:03:15;;;;;;;35.03;16.50;;;8.50;32.80;;;;;;5179795;28;20595;-46
2022/03/20 10:06:17;;;;;;;25.70;15.30;;;8.60;32.60;;;;;;5174401;28;20431;-46
2022/03/20 10:08:58;;;;;;;31.10;15.93;;;8.70;32.80;;;;;;5165941;28;20444;-46
2022/03/20 10:11:30;;;;;;;34.83;16.80;;;8.80;32.40;;;;;;5173443;28;20459;-50
2022/03/20 10:14:07;;;;;;;24.60;14.83;;;8.80;32.40;;;;;;5251614;28;20472;-48
2022/03/20 10:16:50;;;;;;;30.73;15.20;;;8.70;32.00;;;;;;5177142;28;20493;-46
2022/03/20 10:19:23;;;;;;;24.53;14.63;;;8.80;31.70;;;;;;5167894;28;20434;-46
2022/03/20 10:22:04;;;;;;;29.20;15.30;;;8.90;31.60;;;;;;5177025;28;20459;-47
2022/03/20 10:24:40;;;;;;;29.60;15.60;;;9.00;31.90;;;;;;5177615;28;20892;-46
2022/03/20 10:27:13;;;;;;;33.27;14.80;;;9.10;31.80;;;;;;5174905;28;20454;-45
2022/03/20 10:29:57;;;;;;;21.53;13.57;;;9.20;30.80;;;;;;5170642;28;20448;-47
2022/03/20 10:32:28;;;;;;;28.83;13.87;;;9.20;30.60;;;;;;5174311;28;20452;-46
2022/03/20 10:35:04;;;;;;;27.53;14.37;;;9.30;30.80;;;;;;5182980;28;20520;-50
2022/03/20 10:37:46;;;;;;;23.63;14.43;;;9.40;30.40;;;;;;5192076;28;20173;-48
2022/03/20 10:40:25;;;;;;;36.53;15.20;;;9.40;30.40;;;;;;5179046;28;20457;-46
2022/03/20 10:43:07;;;;;;;26.23;14.53;;;9.50;30.40;;;;;;5180800;28;20545;-47
2022/03/20 10:46:00;;;;;;;25.80;14.03;;;9.70;30.20;;;;;;5177064;28;20798;-46
2022/03/20 10:48:42;;;;;;;23.60;14.63;;;9.80;29.80;;;;;;5175791;28;20447;-47
2022/03/20 10:51:12;;;;;;;27.80;13.47;;;9.90;29.10;;;;;;5179558;28;20467;-47
2022/03/20 10:53:55;;;;;;;34.50;16.17;;;10.00;28.20;;;;;;5180749;28;20478;-46
2022/03/20 10:56:25;;;;;;;33.80;14.00;;;10.00;28.50;;;;;;5190090;28;20191;-47
2022/03/20 10:58:56;;;;;;;28.80;14.00;;;10.00;28.30;;;;;;5177910;28;20955;-47
2022/03/20 11:01:35;;;;;;;21.63;13.37;;;10.00;28.10;;;;;;5177555;28;20235;-46
2022/03/20 11:04:07;;;;;;;26.17;13.27;;;10.00;28.10;;;;;;5173104;28;20307;-48
2022/03/20 11:06:48;;;;;;;24.87;13.03;;;10.10;28.40;;;;;;5173772;28;20451;-46
2022/03/20 11:09:19;;;;;;;24.40;11.70;;;10.20;27.90;;;;;;5176676;28;20467;-46
2022/03/20 11:11:53;;;;;;;22.07;13.23;;;10.40;27.70;;;;;;5175050;28;20677;-46
2022/03/20 11:14:26;;;;;;;27.47;13.27;;;10.40;27.10;;;;;;5165494;28;20273;-46
2022/03/20 11:17:06;;;;;;;20.67;13.13;;;10.30;27.20;;;;;;5159755;28;20920;-46
2022/03/20 11:19:42;;;;;;;25.00;13.17;;;10.20;27.70;;;;;;5168084;28;20845;-46
2022/03/20 11:22:17;;;;;;;17.17;11.70;;;10.40;27.70;;;;;;5174210;28;20467;-46
2022/03/20 11:24:50;;;;;;;21.03;12.93;;;10.50;27.30;;;;;;5173635;28;20471;-47
2022/03/20 11:27:25;;;;;;;18.40;11.77;;;10.60;26.80;;;;;;5172670;28;20515;-46
2022/03/20 11:30:06;;;;;;;23.63;13.77;;;10.50;26.80;;;;;;5173363;28;20478;-48
2022/03/20 11:32:39;;;;;;;24.70;12.53;;;10.50;26.90;;;;;;5180629;28;20814;-46
2022/03/20 11:35:10;;;;;;;21.13;12.63;;;10.60;26.60;;;;;;5174402;28;20913;-46
2022/03/20 11:37:48;;;;;;;26.03;11.47;;;10.70;26.90;;;;;;5175349;28;20436;-46
2022/03/20 11:40:22;;;;;;;27.23;14.80;;;10.90;26.80;;;;;;5184923;28;20276;-46
2022/03/20 11:43:15;;;;;;;21.20;14.27;;;10.90;27.10;;;;;;5175977;28;20481;-48
2022/03/20 11:46:12;;;;;;;30.87;14.03;;;10.70;27.50;;;;;;5171995;28;20451;-47
2022/03/20 11:48:45;;;;;;;26.07;13.50;;;10.60;27.60;;;;;;5180029;28;20443;-47
2022/03/20 11:51:53;;;;;;;31.40;15.17;;;10.70;27.70;;;;;;5174646;28;20481;-45
2022/03/20 11:54:39;;;;;;;23.20;14.13;;;10.80;27.80;;;;;;5166461;28;20471;-47
2022/03/20 11:57:29;;;;;;;27.40;15.00;;;10.90;27.90;;;;;;5171791;28;20455;-49
2022/03/20 12:00:15;;;;;;;26.63;14.63;;;10.90;27.90;;;;;;5170742;28;20531;-45
2022/03/20 12:02:48;;;;;;;24.13;14.53;;;10.80;27.10;;;;;;5164708;28;20455;-46
2022/03/20 12:05:29;;;;;;;28.27;13.87;;;10.80;27.10;;;;;;5173736;28;20850;-49
2022/03/20 12:08:44;;;;;;;27.93;14.00;;;11.00;27.50;;;;;;5177804;28;20495;-46
2022/03/20 12:11:39;;;;;;;23.73;14.70;;;11.10;27.40;;;;;;5173062;28;20477;-50
2022/03/20 12:14:28;;;;;;;29.00;14.73;;;11.20;27.50;;;;;;5169021;28;21597;-50
2022/03/20 12:17:00;;;;;;;21.37;12.60;;;11.20;27.50;;;;;;5165285;28;20432;-48
2022/03/20 12:19:41;;;;;;;24.80;13.07;;;11.20;27.40;;;;;;5174709;28;20458;-48
2022/03/20 12:22:15;;;;;;;30.43;13.30;;;11.10;27.20;;;;;;5215966;23;20628;-50
2022/03/20 12:24:54;;;;;;;21.57;13.37;;;11.20;28.00;;;;;;5282675;28;20492;-50
2022/03/20 12:27:25;;;;;;;23.37;13.90;;;11.30;27.00;;;;;;5284400;28;20480;-50
2022/03/20 12:30:14;;;;;;;25.70;13.60;;;11.20;27.10;;;;;;5279673;28;20432;-50
2022/03/20 12:32:48;;;;;;;19.13;11.77;;;11.40;27.20;;;;;;5267341;28;20209;-50
2022/03/20 12:35:20;;;;;;;20.70;12.73;;;11.40;26.60;;;;;;5255550;28;20460;-50
2022/03/20 12:37:53;;;;;;;22.63;12.77;;;11.40;26.20;;;;;;5262930;28;20456;-51
2022/03/20 12:40:26;;;;;;;15.63;11.27;;;11.50;25.60;;;;;;5259596;28;21031;-51
2022/03/20 12:42:59;;;;;;;20.77;13.10;;;11.60;25.90;;;;;;5260919;28;20456;-51
2022/03/20 12:45:31;;;;;;;25.87;13.17;;;11.70;26.00;;;;;;5257838;28;20463;-50
2022/03/20 12:48:04;;;;;;;23.30;12.27;;;11.70;25.70;;;;;;5255690;28;20431;-50
2022/03/20 12:50:40;;;;;;;20.97;11.83;;;11.60;25.90;;;;;;5255555;28;20496;-49
2022/03/20 12:53:16;;;;;;;33.30;12.93;;;11.60;26.10;;;;;;5254702;28;20523;-50
2022/03/20 12:55:58;;;;;;;21.93;11.53;;;11.50;26.20;;;;;;5263500;28;20463;-51
2022/03/20 12:58:29;;;;;;;17.67;10.93;;;11.50;26.00;;;;;;5257684;28;20470;-52
2022/03/20 13:01:05;;;;;;;18.27;11.67;;;11.50;25.80;;;;;;5258594;28;20489;-51
2022/03/20 13:03:36;;;;;;;20.53;11.77;;;11.70;25.50;;;;;;5258932;28;20946;-51
2022/03/20 13:06:07;;;;;;;23.87;12.20;;;11.70;25.60;;;;;;5253788;28;20457;-52
2022/03/20 13:08:40;;;;;;;19.20;12.53;;;11.80;25.40;;;;;;5262879;28;20483;-51
2022/03/20 13:14:12;;;;;;;21.43;11.50;;;12.00;25.30;;;;;;5257770;28;20482;-51
2022/03/20 13:16:54;;;;;;;22.67;11.80;;;11.90;25.30;;;;;;5258160;28;20446;-51
2022/03/20 13:19:30;;;;;;;19.90;10.50;;;11.90;25.50;;;;;;5264050;28;20446;-52
2022/03/20 13:22:09;;;;;;;17.70;11.40;;;12.00;24.80;;;;;;5263490;28;20450;-51
2022/03/20 13:24:41;;;;;;;19.07;10.83;;;11.90;24.70;;;;;;5252778;28;20444;-51
2022/03/20 13:27:12;;;;;;;18.30;10.70;;;11.90;24.80;;;;;;5284034;27;20430;-51
2022/03/20 13:29:53;;;;;;;22.33;9.73;;;11.90;24.60;;;;;;5262149;28;20805;-51
2022/03/20 13:32:23;;;;;;;19.27;10.13;;;11.90;24.60;;;;;;5276568;28;20454;-51
2022/03/20 13:34:54;;;;;;;12.60;9.13;;;12.00;24.00;;;;;;5264536;28;20501;-51
2022/03/20 13:37:24;;;;;;;14.33;9.63;;;12.00;23.90;;;;;;5256138;28;20544;-51
2022/03/20 13:39:55;;;;;;;17.63;10.73;;;12.00;23.80;;;;;;5257606;28;20196;-51
2022/03/20 13:42:32;;;;;;;16.47;8.33;;;12.10;24.10;;;;;;5251508;28;20580;-51